createdAt,value
2018-12-06T00:01:00.530Z,6.20
2018-12-06T00:03:41.714Z,6.20
2018-12-06T00:06:10.950Z,6.30
2018-12-06T00:08:52.181Z,6.40
2018-12-06T00:11:21.192Z,6.30
2018-12-06T00:14:02.385Z,6.30
2018-12-06T00:16:31.283Z,6.50
2018-12-06T00:19:12.899Z,6.40
2018-12-06T00:21:42.096Z,6.30
2018-12-06T00:24:23.265Z,6.40
2018-12-06T00:26:52.498Z,6.40
2018-12-06T00:29:33.783Z,6.40
2018-12-06T00:32:04.595Z,6.30
2018-12-06T00:34:45.793Z,6.10
2018-12-06T00:37:14.682Z,5.90
2018-12-06T00:39:55.861Z,6.00
2018-12-06T00:42:24.833Z,6.20
2018-12-06T00:45:06.050Z,6.30
2018-12-06T00:47:36.246Z,6.30
2018-12-06T00:50:17.514Z,6.40
2018-12-06T00:52:46.514Z,6.40
2018-12-06T00:55:27.685Z,6.40
2018-12-06T00:57:56.699Z,6.50
2018-12-06T01:00:37.864Z,6.50
2018-12-06T01:03:06.771Z,6.50
2018-12-06T01:05:47.979Z,6.50
2018-12-06T01:08:16.892Z,6.50
2018-12-06T01:10:58.093Z,6.30
2018-12-06T01:13:27.007Z,6.20
2018-12-06T01:16:08.161Z,6.30
2018-12-06T01:18:37.058Z,6.30
2018-12-06T01:21:18.251Z,6.30
2018-12-06T01:23:47.159Z,6.40
2018-12-06T01:26:28.325Z,6.30
2018-12-06T01:28:57.862Z,6.20
2018-12-06T01:31:39.099Z,6.20
2018-12-06T01:34:08.366Z,6.30
2018-12-06T01:36:49.559Z,6.30
2018-12-06T01:39:18.465Z,6.20
2018-12-06T01:41:59.756Z,6.10
2018-12-06T01:44:28.766Z,6.20
2018-12-06T01:47:09.930Z,6.30
2018-12-06T01:49:38.835Z,6.20
2018-12-06T01:52:20.090Z,5.90
2018-12-06T01:54:49.114Z,5.80
2018-12-06T01:57:30.310Z,5.60
2018-12-06T01:59:59.231Z,5.60
2018-12-06T02:02:41.558Z,5.60
2018-12-06T02:05:10.481Z,5.70
2018-12-06T02:07:51.673Z,5.80
2018-12-06T02:10:20.577Z,6.00
2018-12-06T02:13:01.787Z,6.00
2018-12-06T02:15:30.742Z,6.00
2018-12-06T02:18:11.913Z,6.00
2018-12-06T02:20:40.834Z,6.00
2018-12-06T02:23:22.032Z,6.00
2018-12-06T02:25:51.043Z,5.70
2018-12-06T02:28:32.294Z,5.60
2018-12-06T02:31:01.315Z,5.60
2018-12-06T02:33:43.446Z,5.60
2018-12-06T02:36:12.455Z,5.50
2018-12-06T02:38:53.658Z,5.40
2018-12-06T02:41:22.862Z,5.50
2018-12-06T02:44:04.389Z,5.60
2018-12-06T02:46:33.311Z,5.70
2018-12-06T02:49:14.655Z,5.70
2018-12-06T02:51:43.668Z,5.70
2018-12-06T02:54:24.864Z,5.80
2018-12-06T02:56:55.271Z,5.70
2018-12-06T02:59:36.438Z,5.60
2018-12-06T03:02:06.419Z,5.50
2018-12-06T03:04:47.751Z,5.50
2018-12-06T03:07:18.575Z,5.50
2018-12-06T03:09:59.768Z,5.60
2018-12-06T03:12:28.841Z,5.70
2018-12-06T03:15:10.185Z,5.70
2018-12-06T03:17:51.567Z,5.70
2018-12-06T03:20:20.462Z,5.60
2018-12-06T03:23:01.763Z,5.60
2018-12-06T03:25:30.783Z,5.70
2018-12-06T03:28:11.976Z,5.60
2018-12-06T03:30:42.202Z,5.50
2018-12-06T03:33:23.443Z,5.50
2018-12-06T03:35:52.459Z,5.40
2018-12-06T03:38:33.690Z,5.50
2018-12-06T03:41:03.122Z,5.50
2018-12-06T03:43:44.679Z,5.70
2018-12-06T03:46:15.490Z,5.80
2018-12-06T03:48:56.695Z,5.80
2018-12-06T03:51:25.615Z,5.70
2018-12-06T03:54:06.818Z,5.70
2018-12-06T03:56:35.837Z,5.60
2018-12-06T03:59:24.378Z,5.50
2018-12-06T04:01:56.350Z,5.60
2018-12-06T04:04:37.599Z,5.60
2018-12-06T04:07:06.495Z,5.70
2018-12-06T04:09:47.690Z,5.60
2018-12-06T04:12:16.593Z,5.40
2018-12-06T04:14:57.813Z,5.40
2018-12-06T04:17:26.879Z,5.20
2018-12-06T04:20:08.174Z,5.40
2018-12-06T04:22:37.258Z,5.50
2018-12-06T04:25:18.470Z,5.50
2018-12-06T04:27:48.763Z,5.40
2018-12-06T04:30:29.985Z,5.40
2018-12-06T04:33:00.202Z,5.60
2018-12-06T04:35:41.446Z,5.60
2018-12-06T04:38:10.320Z,5.70
2018-12-06T04:40:51.654Z,5.70
2018-12-06T04:43:20.760Z,5.80
2018-12-06T04:46:02.313Z,5.80
2018-12-06T04:48:31.315Z,5.90
2018-12-06T04:51:12.539Z,5.90
2018-12-06T04:53:41.459Z,5.80
2018-12-06T04:56:22.643Z,5.70
2018-12-06T04:58:52.759Z,5.80
2018-12-06T05:01:34.467Z,5.80
2018-12-06T05:04:03.380Z,5.80
2018-12-06T05:06:44.637Z,5.80
2018-12-06T05:09:13.584Z,5.80
2018-12-06T05:11:54.837Z,5.80
2018-12-06T05:14:24.847Z,5.80
2018-12-06T05:17:06.094Z,5.80
2018-12-06T05:19:36.944Z,5.80
2018-12-06T05:23:21.553Z,5.70
2018-12-06T05:25:52.391Z,5.60
2018-12-06T05:28:40.255Z,5.50
2018-12-06T05:31:11.074Z,5.40
2018-12-06T05:33:52.276Z,5.50
2018-12-06T05:36:21.162Z,5.60
2018-12-06T05:39:02.601Z,5.50
2018-12-06T05:41:31.490Z,5.70
2018-12-06T05:44:12.781Z,5.80
2018-12-06T05:46:41.682Z,5.90
2018-12-06T05:49:22.870Z,6.00
2018-12-06T05:51:51.752Z,5.90
2018-12-06T05:54:32.958Z,5.80
2018-12-06T05:57:01.852Z,5.70
2018-12-06T05:59:43.031Z,5.70
2018-12-06T06:02:12.034Z,5.70
2018-12-06T06:04:53.274Z,5.70
2018-12-06T06:07:22.472Z,5.60
2018-12-06T06:10:04.115Z,5.60
2018-12-06T06:12:33.017Z,5.50
2018-12-06T06:15:14.230Z,5.60
2018-12-06T06:17:43.130Z,5.70
2018-12-06T06:20:24.341Z,5.60
2018-12-06T06:22:53.339Z,5.50
2018-12-06T06:25:34.609Z,5.50
2018-12-06T06:28:03.502Z,5.40
2018-12-06T06:30:44.689Z,5.50
2018-12-06T06:33:13.587Z,5.40
2018-12-06T06:35:54.791Z,5.40
2018-12-06T06:38:23.800Z,5.50
2018-12-06T06:41:05.010Z,5.70
2018-12-06T06:43:34.042Z,5.80
2018-12-06T06:46:15.251Z,5.90
2018-12-06T06:48:44.147Z,5.90
2018-12-06T06:51:25.437Z,5.90
2018-12-06T06:53:54.337Z,6.00
2018-12-06T06:56:35.585Z,6.00
2018-12-06T06:59:06.004Z,5.80
2018-12-06T07:01:53.266Z,5.70
2018-12-06T07:04:22.146Z,5.70
2018-12-06T07:07:03.367Z,5.80
2018-12-06T07:09:32.268Z,5.80
2018-12-06T07:12:13.638Z,5.80
2018-12-06T07:14:42.562Z,5.80
2018-12-06T07:17:23.815Z,5.80
2018-12-06T07:19:59.574Z,5.80
2018-12-06T07:22:41.405Z,5.90
2018-12-06T07:25:10.529Z,5.80
2018-12-06T07:27:51.714Z,5.80
2018-12-06T07:30:20.839Z,5.90
2018-12-06T07:33:02.190Z,5.90
2018-12-06T07:35:32.223Z,5.80
2018-12-06T07:38:13.558Z,5.80
2018-12-06T07:40:42.491Z,5.90
2018-12-06T07:43:23.718Z,6.00
2018-12-06T07:45:57.190Z,6.00
2018-12-06T07:48:39.624Z,6.00
2018-12-06T07:51:08.774Z,6.00
2018-12-06T07:53:50.282Z,6.10
2018-12-06T07:56:19.510Z,6.10
2018-12-06T07:59:00.854Z,5.90
2018-12-06T08:01:29.882Z,5.70
2018-12-06T08:04:11.085Z,5.80
2018-12-06T08:06:40.059Z,6.00
2018-12-06T08:09:21.249Z,6.00
2018-12-06T08:11:50.170Z,6.00
2018-12-06T08:14:31.454Z,6.10
2018-12-06T08:17:00.339Z,6.10
2018-12-06T08:19:41.551Z,6.20
2018-12-06T08:22:10.485Z,6.10
2018-12-06T08:24:51.679Z,6.20
2018-12-06T08:27:20.767Z,6.10
2018-12-06T08:30:02.030Z,6.20
2018-12-06T08:32:31.359Z,6.20
2018-12-06T08:35:12.570Z,6.30
2018-12-06T08:37:41.471Z,6.10
2018-12-06T08:40:22.714Z,6.00
2018-12-06T08:42:51.617Z,6.00
2018-12-06T08:45:32.831Z,6.10
2018-12-06T08:48:02.757Z,6.10
2018-12-06T08:50:43.963Z,6.10
2018-12-06T08:53:12.864Z,6.10
2018-12-06T08:55:54.107Z,6.20
2018-12-06T08:58:23.005Z,6.20
2018-12-06T09:01:04.230Z,6.30
2018-12-06T09:03:33.162Z,6.40
2018-12-06T09:06:14.503Z,6.10
2018-12-06T09:08:43.431Z,6.20
2018-12-06T09:11:24.760Z,6.30
2018-12-06T09:13:54.466Z,6.10
2018-12-06T09:16:35.667Z,6.00
2018-12-06T09:19:04.823Z,6.20
2018-12-06T09:21:46.119Z,6.20
2018-12-06T09:24:15.031Z,6.20
2018-12-06T09:26:58.917Z,6.20
2018-12-06T09:29:27.276Z,6.20
2018-12-06T09:32:08.498Z,6.40
2018-12-06T09:34:37.412Z,6.40
2018-12-06T09:37:18.612Z,6.40
2018-12-06T09:39:59.680Z,6.60
2018-12-06T09:42:40.950Z,6.50
2018-12-06T09:45:09.891Z,6.50
2018-12-06T09:47:51.089Z,6.50
2018-12-06T09:50:20.099Z,6.60
2018-12-06T09:53:01.399Z,6.60
2018-12-06T09:55:30.289Z,6.60
2018-12-06T09:58:11.647Z,6.50
2018-12-06T10:00:40.556Z,6.30
2018-12-06T10:03:21.830Z,6.40
2018-12-06T10:05:50.746Z,6.10
2018-12-06T10:08:32.126Z,5.80
2018-12-06T10:11:01.430Z,6.00
2018-12-06T10:13:42.675Z,6.00
2018-12-06T10:16:11.783Z,6.10
2018-12-06T10:18:52.971Z,6.30
2018-12-06T10:21:21.897Z,6.40
2018-12-06T10:24:03.234Z,6.40
2018-12-06T10:26:32.174Z,6.30
2018-12-06T10:29:13.414Z,6.40
2018-12-06T10:31:42.549Z,6.50
2018-12-06T10:34:29.766Z,6.50
2018-12-06T10:36:58.790Z,6.40
2018-12-06T10:39:39.987Z,6.20
2018-12-06T10:42:10.798Z,6.10
2018-12-06T10:44:52.014Z,6.10
2018-12-06T10:47:22.901Z,5.90
2018-12-06T10:50:05.075Z,5.90
2018-12-06T10:52:35.893Z,6.00
2018-12-06T10:55:17.115Z,6.10
2018-12-06T10:57:46.029Z,6.20
2018-12-06T11:01:34.552Z,6.20
2018-12-06T11:04:03.624Z,6.20
2018-12-06T11:06:44.810Z,6.20
2018-12-06T11:09:13.820Z,6.20
2018-12-06T11:11:55.067Z,6.10
2018-12-06T11:14:24.165Z,6.20
2018-12-06T11:17:05.540Z,6.10
2018-12-06T11:19:34.546Z,6.10
2018-12-06T11:22:15.822Z,6.00
2018-12-06T11:24:44.737Z,6.10
2018-12-06T11:27:25.942Z,6.10
2018-12-06T11:29:55.043Z,6.00
2018-12-06T11:32:36.350Z,6.00
2018-12-06T11:35:05.703Z,6.00
2018-12-06T11:37:46.937Z,5.90
2018-12-06T11:40:15.816Z,6.00
2018-12-06T11:42:57.124Z,6.10
2018-12-06T11:45:26.052Z,6.10
2018-12-06T11:48:07.273Z,6.30
2018-12-06T11:50:36.183Z,6.00
2018-12-06T11:53:19.264Z,5.80
2018-12-06T11:55:48.976Z,5.80
2018-12-06T11:58:30.451Z,6.00
2018-12-06T12:00:59.635Z,5.80
2018-12-06T12:03:40.862Z,5.50
2018-12-06T12:06:09.775Z,5.70
2018-12-06T12:08:51.943Z,5.80
2018-12-06T12:11:21.057Z,5.80
2018-12-06T12:14:02.258Z,5.50
2018-12-06T12:16:31.186Z,5.60
2018-12-06T12:19:12.686Z,5.80
2018-12-06T12:21:41.805Z,5.90
2018-12-06T12:24:23.011Z,6.00
2018-12-06T12:26:51.926Z,6.00
2018-12-06T12:29:33.139Z,6.10
2018-12-06T12:32:03.866Z,5.90
2018-12-06T12:34:45.098Z,6.10
2018-12-06T12:37:14.019Z,6.20
2018-12-06T12:39:55.302Z,6.10
2018-12-06T12:42:24.183Z,6.10
2018-12-06T12:45:06.286Z,6.00
2018-12-06T12:47:35.311Z,6.20
2018-12-06T12:50:16.556Z,6.20
2018-12-06T12:52:45.470Z,6.20
2018-12-06T12:55:26.783Z,6.40
2018-12-06T12:57:55.822Z,6.30
2018-12-06T13:00:37.031Z,6.30
2018-12-06T13:03:18.395Z,6.30
2018-12-06T13:05:47.311Z,6.40
2018-12-06T13:08:28.581Z,6.40
2018-12-06T13:10:57.558Z,6.40
2018-12-06T13:13:41.207Z,6.40
2018-12-06T13:16:10.151Z,6.40
2018-12-06T13:18:51.362Z,6.40
2018-12-06T13:21:20.290Z,6.50
2018-12-06T13:24:01.480Z,6.50
2018-12-06T13:26:30.822Z,6.50
2018-12-06T13:29:12.017Z,6.60
2018-12-06T13:31:40.940Z,6.50
2018-12-06T13:34:22.115Z,6.50
2018-12-06T13:36:51.154Z,6.60
2018-12-06T13:39:32.383Z,6.50
2018-12-06T13:42:01.295Z,6.50
2018-12-06T13:44:42.570Z,6.30
2018-12-06T13:47:11.499Z,6.30
2018-12-06T13:49:52.677Z,6.40
2018-12-06T13:52:21.710Z,6.60
2018-12-06T13:55:03.555Z,6.50
2018-12-06T13:57:33.474Z,6.50
2018-12-06T14:00:17.119Z,6.50
2018-12-06T14:02:46.048Z,6.40
2018-12-06T14:05:27.226Z,6.40
2018-12-06T14:07:58.118Z,5.80
2018-12-06T14:10:39.314Z,5.80
2018-12-06T14:13:08.211Z,5.80
2018-12-06T14:15:49.399Z,5.90
2018-12-06T14:18:18.542Z,6.10
2018-12-06T14:20:59.733Z,6.10
2018-12-06T14:23:28.755Z,6.20
2018-12-06T14:26:11.163Z,6.20
2018-12-06T14:28:40.264Z,6.30
2018-12-06T14:31:21.468Z,6.20
2018-12-06T14:33:50.392Z,6.30
2018-12-06T14:36:31.618Z,6.30
2018-12-06T14:39:00.551Z,6.10
2018-12-06T14:41:41.844Z,6.10
2018-12-06T14:44:10.833Z,6.30
2018-12-06T14:46:52.040Z,6.40
2018-12-06T14:49:20.978Z,6.40
2018-12-06T14:52:02.189Z,6.50
2018-12-06T14:54:31.123Z,6.60
2018-12-06T14:57:12.555Z,6.50
2018-12-06T14:59:41.663Z,6.50
2018-12-06T15:02:22.937Z,6.40
2018-12-06T15:04:51.943Z,6.20
2018-12-06T15:07:33.138Z,6.20
2018-12-06T15:10:05.135Z,6.10
2018-12-06T15:12:46.350Z,6.30
2018-12-06T15:15:15.627Z,6.40
2018-12-06T15:17:56.822Z,6.30
2018-12-06T15:20:26.103Z,6.40
2018-12-06T15:23:07.394Z,6.20
2018-12-06T15:25:41.843Z,6.10
2018-12-06T15:28:19.619Z,6.00
2018-12-06T15:30:49.064Z,6.10
2018-12-06T15:33:30.427Z,6.30
2018-12-06T15:35:59.450Z,6.40
2018-12-06T15:38:40.639Z,6.50
2018-12-06T15:41:09.843Z,6.40
2018-12-06T15:43:51.038Z,6.20
2018-12-06T15:46:20.072Z,6.10
2018-12-06T15:49:01.275Z,6.10
2018-12-06T15:51:30.341Z,6.20
2018-12-06T15:54:11.563Z,6.10
2018-12-06T15:56:40.851Z,6.30
2018-12-06T15:59:27.444Z,6.30
2018-12-06T16:01:56.483Z,6.30
2018-12-06T16:04:37.667Z,6.30
2018-12-06T16:07:06.835Z,6.20
2018-12-06T16:09:48.191Z,6.10
2018-12-06T16:12:17.218Z,6.20
2018-12-06T16:14:58.402Z,6.30
2018-12-06T16:17:27.457Z,6.30
2018-12-06T16:20:10.389Z,6.40
2018-12-06T16:22:39.426Z,6.50
2018-12-06T16:25:20.639Z,6.50
2018-12-06T16:27:49.658Z,6.50
2018-12-06T16:30:30.919Z,6.40
2018-12-06T16:33:00.251Z,6.50
2018-12-06T16:35:41.490Z,6.60
2018-12-06T16:38:10.458Z,6.50
2018-12-06T16:40:51.638Z,6.50
2018-12-06T16:43:20.568Z,6.50
2018-12-06T16:46:01.791Z,6.40
2018-12-06T16:48:31.120Z,6.40
2018-12-06T16:51:12.671Z,6.40
2018-12-06T16:53:41.610Z,6.50
2018-12-06T16:56:22.821Z,6.40
2018-12-06T16:58:51.854Z,6.50
2018-12-06T17:01:33.595Z,6.50
2018-12-06T17:04:02.570Z,5.90
2018-12-06T17:06:43.802Z,5.60
2018-12-06T17:09:12.719Z,5.70
2018-12-06T17:11:54.312Z,5.70
2018-12-06T17:14:23.855Z,5.80
2018-12-06T17:17:05.344Z,6.00
2018-12-06T17:19:34.282Z,6.30
2018-12-06T17:22:15.502Z,6.20
2018-12-06T17:24:44.430Z,6.20
2018-12-06T17:27:25.653Z,6.30
2018-12-06T17:29:54.984Z,6.40
2018-12-06T17:32:36.738Z,6.40
2018-12-06T17:35:07.233Z,6.50
2018-12-06T17:37:48.653Z,6.50
2018-12-06T17:40:17.839Z,6.40
2018-12-06T17:42:59.430Z,6.30
2018-12-06T17:45:29.721Z,6.20
2018-12-06T17:48:10.960Z,6.20
2018-12-06T17:50:40.270Z,6.20
2018-12-06T17:53:21.962Z,6.10
2018-12-06T17:55:55.366Z,6.00
2018-12-06T17:58:36.638Z,6.20
2018-12-06T18:01:06.243Z,6.00
2018-12-06T18:03:47.471Z,5.90
2018-12-06T18:06:17.258Z,5.90
2018-12-06T18:08:58.436Z,5.90
2018-12-06T18:11:28.018Z,6.10
2018-12-06T18:14:09.236Z,6.00
2018-12-06T18:16:38.295Z,6.10
2018-12-06T18:19:19.532Z,6.10
2018-12-06T18:22:01.493Z,5.90
2018-12-06T18:24:30.524Z,5.90
2018-12-06T18:27:11.764Z,6.20
2018-12-06T18:29:40.694Z,6.20
2018-12-06T18:32:21.911Z,6.20
2018-12-06T18:34:50.806Z,6.00
2018-12-06T18:37:32.250Z,5.70
2018-12-06T18:40:01.205Z,5.70
2018-12-06T18:42:42.576Z,5.80
2018-12-06T18:45:11.579Z,5.80
2018-12-06T18:47:52.817Z,5.80
2018-12-06T18:50:21.843Z,5.80
2018-12-06T18:53:03.173Z,5.60
2018-12-06T18:55:32.086Z,5.60
2018-12-06T18:58:13.362Z,5.50
2018-12-06T19:00:42.292Z,5.60
2018-12-06T19:03:23.594Z,5.60
2018-12-06T19:05:52.829Z,5.60
2018-12-06T19:08:34.051Z,5.70
2018-12-06T19:11:03.067Z,5.60
2018-12-06T19:13:44.328Z,5.60
2018-12-06T19:16:13.251Z,5.70
2018-12-06T19:18:54.510Z,5.70
2018-12-06T19:21:23.431Z,5.60
2018-12-06T19:24:04.662Z,5.50
2018-12-06T19:26:33.607Z,5.40
2018-12-06T19:29:14.855Z,5.30
2018-12-06T19:31:45.664Z,5.40
2018-12-06T19:34:26.901Z,5.50
2018-12-06T19:36:56.783Z,5.40
2018-12-06T19:39:37.983Z,5.10
2018-12-06T19:42:06.996Z,5.10
2018-12-06T19:44:48.978Z,5.10
2018-12-06T19:47:18.014Z,5.10
2018-12-06T19:49:59.227Z,5.10
2018-12-06T19:52:28.248Z,5.00
2018-12-06T19:55:09.462Z,4.90
2018-12-06T19:57:38.489Z,5.00
2018-12-06T20:00:28.698Z,5.00
2018-12-06T20:02:58.439Z,4.80
2018-12-06T20:05:40.110Z,4.90
2018-12-06T20:08:09.798Z,4.90
2018-12-06T20:10:51.044Z,4.90
2018-12-06T20:13:20.437Z,4.70
2018-12-06T20:16:01.662Z,4.60
2018-12-06T20:18:31.388Z,4.70
2018-12-06T20:21:13.142Z,4.70
2018-12-06T20:23:43.347Z,4.70
2018-12-06T20:26:24.574Z,4.70
2018-12-06T20:28:53.486Z,4.80
2018-12-06T20:31:34.751Z,4.70
2018-12-06T20:34:03.692Z,4.80
2018-12-06T20:36:44.954Z,4.80
2018-12-06T20:39:14.957Z,4.80
2018-12-06T20:41:56.223Z,4.90
2018-12-06T20:44:25.267Z,4.80
2018-12-06T20:47:06.503Z,4.60
2018-12-06T20:49:37.315Z,4.60
2018-12-06T20:52:18.940Z,4.40
2018-12-06T20:54:49.800Z,4.20
2018-12-06T20:57:37.180Z,4.30
2018-12-06T21:00:02.638Z,4.40
2018-12-06T21:02:43.947Z,4.40
2018-12-06T21:05:13.078Z,4.40
2018-12-06T21:07:55.909Z,4.40
2018-12-06T21:10:25.160Z,4.50
2018-12-06T21:13:06.592Z,4.40
2018-12-06T21:15:35.493Z,4.50
2018-12-06T21:18:16.698Z,4.50
2018-12-06T21:20:45.602Z,4.60
2018-12-06T21:23:27.925Z,4.50
2018-12-06T21:25:57.132Z,4.50
2018-12-06T21:28:45.065Z,4.40
2018-12-06T21:31:14.125Z,4.40
2018-12-06T21:33:55.422Z,4.40
2018-12-06T21:36:24.362Z,4.30
2018-12-06T21:39:08.043Z,4.40
2018-12-06T21:41:37.387Z,4.50
2018-12-06T21:44:24.150Z,4.40
2018-12-06T21:46:53.471Z,4.40
2018-12-06T21:49:35.100Z,4.50
2018-12-06T21:52:04.686Z,4.50
2018-12-06T21:54:45.952Z,4.40
2018-12-06T21:57:14.850Z,4.20
2018-12-06T21:59:56.036Z,4.30
2018-12-06T22:02:27.014Z,4.20
2018-12-06T22:05:08.482Z,4.10
2018-12-06T22:07:37.694Z,4.20
2018-12-06T22:10:18.914Z,4.20
2018-12-06T22:12:48.641Z,4.10
2018-12-06T22:15:29.831Z,4.00
2018-12-06T22:17:58.841Z,4.10
2018-12-06T22:20:40.479Z,4.20
2018-12-06T22:23:09.371Z,4.20
2018-12-06T22:25:50.617Z,4.20
2018-12-06T22:28:19.611Z,4.20
2018-12-06T22:31:00.846Z,4.30
2018-12-06T22:33:29.745Z,4.40
2018-12-06T22:36:10.949Z,4.30
2018-12-06T22:38:39.874Z,4.50
2018-12-06T22:41:21.066Z,4.30
2018-12-06T22:43:49.945Z,4.40
2018-12-06T22:46:31.240Z,4.40
2018-12-06T22:49:00.343Z,4.40
2018-12-06T22:51:41.626Z,4.30
2018-12-06T22:54:10.519Z,4.20
2018-12-06T22:56:51.782Z,4.20
2018-12-06T22:59:27.654Z,4.00
2018-12-06T23:02:08.919Z,4.00
2018-12-06T23:04:37.815Z,4.20
2018-12-06T23:07:19.017Z,4.20
2018-12-06T23:09:48.038Z,4.10
2018-12-06T23:12:29.542Z,4.10
2018-12-06T23:14:58.582Z,3.90
2018-12-06T23:17:39.789Z,4.00
2018-12-06T23:20:09.030Z,4.00
2018-12-06T23:22:50.442Z,4.10
2018-12-06T23:25:21.240Z,4.20
2018-12-06T23:28:02.627Z,4.30
2018-12-06T23:30:31.550Z,4.20
2018-12-06T23:33:13.400Z,4.10
2018-12-06T23:35:42.294Z,4.10
2018-12-06T23:38:23.490Z,4.20
2018-12-06T23:40:52.395Z,3.90
2018-12-06T23:43:33.675Z,3.80
2018-12-06T23:46:02.643Z,4.00
2018-12-06T23:48:43.874Z,3.90
2018-12-06T23:51:35.423Z,3.70
2018-12-06T23:54:16.631Z,3.80
2018-12-06T23:56:45.559Z,3.90
2018-12-06T23:59:28.249Z,4.00
